createdAt,value
2022-09-14T00:01:58.844Z,87.93
2022-09-14T00:04:31.243Z,87.41
2022-09-14T00:07:03.592Z,87.67
2022-09-14T00:09:35.962Z,87.84
2022-09-14T00:12:08.256Z,87.88
2022-09-14T00:14:41.483Z,87.63
2022-09-14T00:17:14.446Z,87.88
2022-09-14T00:19:47.102Z,88.10
2022-09-14T00:22:19.891Z,87.53
2022-09-14T00:24:52.394Z,88.44
2022-09-14T00:27:24.888Z,88.65
2022-09-14T00:29:57.242Z,88.83
2022-09-14T00:32:30.207Z,88.38
2022-09-14T00:35:02.663Z,88.86
2022-09-14T00:37:34.987Z,88.38
2022-09-14T00:40:09.985Z,88.25
2022-09-14T00:42:42.359Z,88.37
2022-09-14T00:45:17.663Z,88.03
2022-09-14T00:47:53.392Z,88.38
2022-09-14T00:50:25.775Z,88.50
2022-09-14T00:52:58.796Z,88.40
2022-09-14T00:55:32.699Z,89.14
2022-09-14T00:58:05.019Z,89.17
2022-09-14T01:00:37.523Z,89.60
2022-09-14T01:03:10.503Z,89.84
2022-09-14T01:05:59.967Z,89.99
2022-09-14T01:08:46.484Z,90.71
2022-09-14T01:11:39.643Z,90.19
2022-09-14T01:14:20.187Z,89.67
2022-09-14T01:17:01.743Z,89.67
2022-09-14T01:19:53.582Z,89.38
2022-09-14T01:22:36.632Z,89.75
2022-09-14T01:25:19.902Z,88.95
2022-09-14T01:27:56.431Z,88.77
2022-09-14T01:30:33.262Z,88.67
2022-09-14T01:33:13.366Z,88.48
2022-09-14T01:35:48.982Z,88.96
2022-09-14T01:38:27.324Z,88.94
2022-09-14T01:41:03.034Z,89.07
2022-09-14T01:43:40.255Z,89.40
2022-09-14T01:46:16.310Z,89.53
2022-09-14T01:48:52.611Z,89.27
2022-09-14T01:51:31.206Z,89.87
2022-09-14T01:54:09.823Z,89.93
2022-09-14T01:56:50.903Z,89.47
2022-09-14T01:59:26.219Z,89.40
2022-09-14T02:02:02.824Z,89.30
2022-09-14T02:04:41.145Z,88.90
2022-09-14T02:07:14.239Z,89.25
2022-09-14T02:09:48.051Z,90.18
2022-09-14T02:12:21.898Z,89.21
2022-09-14T02:14:55.145Z,89.72
2022-09-14T02:17:29.082Z,89.64
2022-09-14T02:20:05.306Z,89.79
2022-09-14T02:22:37.751Z,89.41
2022-09-14T02:25:10.417Z,89.25
2022-09-14T02:27:42.748Z,88.70
2022-09-14T02:30:20.283Z,88.68
2022-09-14T02:33:02.733Z,89.04
2022-09-14T02:35:39.641Z,89.80
2022-09-14T02:38:19.558Z,89.50
2022-09-14T02:40:56.615Z,89.49
2022-09-14T02:43:39.335Z,89.58
2022-09-14T02:46:17.455Z,88.92
2022-09-14T02:48:55.666Z,89.45
2022-09-14T02:51:33.581Z,89.15
2022-09-14T02:54:11.655Z,89.26
2022-09-14T02:56:45.026Z,89.50
2022-09-14T02:59:17.884Z,89.20
2022-09-14T03:01:50.928Z,89.49
2022-09-14T03:04:23.253Z,89.15
2022-09-14T03:06:56.114Z,89.33
2022-09-14T03:09:28.455Z,89.26
2022-09-14T03:12:00.876Z,90.03
2022-09-14T03:14:33.206Z,90.07
2022-09-14T03:17:06.375Z,90.10
2022-09-14T03:19:40.439Z,90.53
2022-09-14T03:22:12.745Z,90.64
2022-09-14T03:24:44.999Z,90.53
2022-09-14T03:27:17.313Z,90.25
2022-09-14T03:29:49.615Z,90.23
2022-09-14T03:32:22.590Z,91.06
2022-09-14T03:34:54.928Z,90.82
2022-09-14T03:37:27.481Z,90.57
2022-09-14T03:39:59.852Z,90.40
2022-09-14T03:42:32.272Z,90.61
2022-09-14T03:45:05.719Z,90.36
2022-09-14T03:47:38.884Z,90.24
2022-09-14T03:50:12.606Z,89.87
2022-09-14T03:52:45.022Z,90.32
2022-09-14T03:55:18.526Z,90.43
2022-09-14T03:57:53.774Z,90.35
2022-09-14T04:00:26.041Z,89.76
2022-09-14T04:03:00.505Z,90.44
2022-09-14T04:05:33.830Z,90.62
2022-09-14T04:08:06.156Z,90.53
2022-09-14T04:10:40.029Z,90.05
2022-09-14T04:13:12.380Z,90.87
2022-09-14T04:15:44.698Z,91.07
2022-09-14T04:18:17.651Z,90.48
2022-09-14T04:20:54.708Z,90.75
2022-09-14T04:23:27.720Z,91.16
2022-09-14T04:26:00.047Z,90.69
2022-09-14T04:28:32.339Z,91.03
2022-09-14T04:31:04.816Z,91.32
2022-09-14T04:33:39.663Z,90.74
2022-09-14T04:36:13.866Z,91.45
2022-09-14T04:38:46.791Z,91.10
2022-09-14T04:41:20.778Z,91.75
2022-09-14T04:43:54.593Z,92.19
2022-09-14T04:46:29.098Z,92.08
2022-09-14T04:49:02.245Z,91.99
2022-09-14T04:51:35.646Z,91.85
2022-09-14T04:54:07.963Z,92.66
2022-09-14T04:56:40.767Z,92.72
2022-09-14T04:59:14.644Z,91.54
2022-09-14T05:01:47.929Z,92.34
2022-09-14T05:04:20.979Z,92.96
2022-09-14T05:06:53.223Z,93.22
2022-09-14T05:09:25.779Z,93.42
2022-09-14T05:11:58.071Z,94.09
2022-09-14T05:14:30.387Z,94.46
2022-09-14T05:17:03.831Z,94.52
2022-09-14T05:19:36.827Z,95.11
2022-09-14T05:22:09.116Z,95.54
2022-09-14T05:24:41.595Z,95.69
2022-09-14T05:27:13.895Z,95.82
2022-09-14T05:29:46.204Z,95.87
2022-09-14T05:32:18.528Z,94.86
2022-09-14T05:34:51.486Z,94.91
2022-09-14T05:37:23.803Z,94.95
2022-09-14T05:39:56.292Z,94.25
2022-09-14T05:42:28.632Z,93.33
2022-09-14T05:45:00.986Z,91.81
2022-09-14T05:47:37.093Z,91.09
2022-09-14T05:50:11.963Z,90.73
2022-09-14T05:52:44.373Z,90.14
2022-09-14T05:55:16.730Z,89.13
2022-09-14T05:57:49.526Z,88.60
2022-09-14T06:00:22.028Z,87.62
2022-09-14T06:02:55.502Z,86.21
2022-09-14T06:05:28.569Z,85.72
2022-09-14T06:08:01.155Z,84.35
2022-09-14T06:10:33.444Z,84.28
2022-09-14T06:13:05.785Z,82.82
2022-09-14T06:15:38.111Z,83.02
2022-09-14T06:18:10.467Z,81.87
2022-09-14T06:20:50.750Z,81.52
2022-09-14T06:23:23.154Z,80.36
2022-09-14T06:25:56.522Z,79.74
2022-09-14T06:28:29.739Z,79.06
2022-09-14T06:31:03.778Z,78.51
2022-09-14T06:33:36.303Z,78.10
2022-09-14T06:36:11.983Z,77.60
2022-09-14T06:38:44.337Z,77.43
2022-09-14T06:41:19.719Z,75.06
2022-09-14T06:43:55.089Z,76.62
2022-09-14T06:46:29.559Z,76.06
2022-09-14T06:49:05.128Z,74.96
2022-09-14T06:51:39.758Z,75.05
2022-09-14T06:54:13.293Z,72.60
2022-09-14T06:56:46.170Z,71.81
2022-09-14T06:59:19.265Z,68.79
2022-09-14T07:01:51.845Z,69.63
2022-09-14T07:04:24.664Z,67.86
2022-09-14T07:06:57.744Z,67.81
2022-09-14T07:09:31.092Z,65.31
2022-09-14T07:12:03.531Z,65.76
2022-09-14T07:14:36.226Z,63.58
2022-09-14T07:17:08.543Z,61.72
2022-09-14T07:19:40.876Z,62.16
2022-09-14T07:22:13.793Z,57.13
2022-09-14T07:24:46.087Z,58.30
2022-09-14T07:27:18.366Z,54.74
2022-09-14T07:29:50.746Z,55.80
2022-09-14T07:32:23.042Z,53.92
2022-09-14T07:34:55.330Z,53.62
2022-09-14T07:37:29.657Z,52.19
2022-09-14T07:40:02.290Z,51.02
2022-09-14T07:42:34.619Z,49.61
2022-09-14T07:45:07.558Z,48.04
2022-09-14T07:47:39.816Z,47.98
2022-09-14T07:50:12.202Z,47.47
2022-09-14T07:52:45.184Z,46.53
2022-09-14T07:55:18.402Z,46.11
2022-09-14T07:57:56.643Z,46.35
2022-09-14T08:00:29.087Z,46.52
2022-09-14T08:03:01.345Z,44.94
2022-09-14T08:05:33.799Z,45.42
2022-09-14T08:08:06.695Z,44.39
2022-09-14T08:10:38.976Z,44.48
2022-09-14T08:13:12.403Z,43.35
2022-09-14T08:15:44.754Z,44.10
2022-09-14T08:18:18.098Z,43.32
2022-09-14T08:20:50.383Z,43.58
2022-09-14T08:23:24.475Z,43.62
2022-09-14T08:26:01.223Z,41.61
2022-09-14T08:28:35.129Z,42.62
2022-09-14T08:31:09.282Z,41.80
2022-09-14T08:33:43.511Z,42.38
2022-09-14T08:36:17.453Z,40.41
2022-09-14T08:38:50.566Z,41.65
2022-09-14T08:41:28.259Z,40.82
2022-09-14T08:44:05.662Z,38.98
2022-09-14T08:46:43.550Z,39.57
2022-09-14T08:49:25.024Z,39.20
2022-09-14T08:51:57.695Z,38.41
2022-09-14T08:54:32.291Z,39.66
2022-09-14T08:57:13.170Z,39.06
2022-09-14T08:59:54.852Z,39.21
2022-09-14T09:02:40.301Z,38.90
2022-09-14T09:05:29.333Z,39.97
2022-09-14T09:08:08.149Z,38.55
2022-09-14T09:10:41.782Z,38.99
2022-09-14T09:13:18.197Z,37.75
2022-09-14T09:15:52.706Z,38.29
2022-09-14T09:18:35.997Z,37.89
2022-09-14T09:21:14.239Z,37.96
2022-09-14T09:23:46.511Z,37.36
2022-09-14T09:26:26.813Z,37.40
2022-09-14T09:29:02.039Z,37.59
2022-09-14T09:31:58.244Z,37.72
2022-09-14T09:34:57.824Z,36.19
2022-09-14T09:37:49.166Z,36.89
2022-09-14T09:40:30.808Z,36.71
2022-09-14T09:43:05.933Z,37.19
2022-09-14T09:45:56.290Z,36.46
2022-09-14T09:48:32.224Z,35.98
2022-09-14T09:51:09.854Z,36.69
2022-09-14T09:53:47.964Z,36.20
2022-09-14T09:56:23.085Z,35.63
2022-09-14T09:58:56.234Z,33.86
2022-09-14T10:01:30.435Z,34.76
2022-09-14T10:04:06.981Z,35.54
2022-09-14T10:06:44.220Z,34.81
2022-09-14T10:09:18.372Z,34.21
2022-09-14T10:11:58.164Z,35.35
2022-09-14T10:14:35.102Z,34.47
2022-09-14T10:17:16.555Z,34.04
2022-09-14T10:19:50.842Z,33.71
2022-09-14T10:22:27.284Z,34.10
2022-09-14T10:25:01.604Z,32.91
2022-09-14T10:27:39.983Z,31.40
2022-09-14T10:30:18.745Z,31.12
2022-09-14T10:32:56.053Z,30.60
2022-09-14T10:35:40.090Z,31.48
2022-09-14T10:38:28.803Z,32.32
2022-09-14T10:41:15.224Z,32.69
2022-09-14T10:44:21.908Z,32.43
2022-09-14T10:47:16.306Z,31.09
2022-09-14T10:50:02.417Z,29.77
2022-09-14T10:52:46.111Z,30.40
2022-09-14T10:55:36.318Z,31.02
2022-09-14T10:58:28.467Z,31.66
2022-09-14T11:01:13.108Z,30.46
2022-09-14T11:03:58.392Z,30.41
2022-09-14T11:06:53.707Z,29.85
2022-09-14T11:09:28.941Z,30.43
2022-09-14T11:12:11.440Z,29.38
2022-09-14T11:15:03.288Z,29.39
2022-09-14T11:17:56.579Z,29.36
2022-09-14T11:20:42.988Z,28.64
2022-09-14T11:23:27.231Z,29.18
2022-09-14T11:26:06.687Z,29.56
2022-09-14T11:28:43.330Z,29.41
2022-09-14T11:31:21.920Z,29.83
2022-09-14T11:33:59.444Z,28.99
2022-09-14T11:36:37.033Z,29.49
2022-09-14T11:39:17.776Z,29.09
2022-09-14T11:41:55.258Z,29.41
2022-09-14T11:44:33.909Z,29.52
2022-09-14T11:47:09.437Z,29.47
2022-09-14T11:49:54.478Z,29.24
2022-09-14T11:52:30.529Z,29.06
2022-09-14T11:55:10.371Z,29.18
2022-09-14T11:57:45.602Z,29.64
2022-09-14T12:00:59.651Z,28.79
2022-09-14T12:04:03.995Z,28.76
2022-09-14T12:06:56.390Z,29.16
2022-09-14T12:09:42.755Z,28.78
2022-09-14T12:12:33.001Z,28.17
2022-09-14T12:15:19.071Z,28.24
2022-09-14T12:17:53.332Z,28.45
2022-09-14T12:20:43.873Z,28.50
2022-09-14T12:23:24.637Z,28.46
2022-09-14T12:26:27.904Z,29.07
2022-09-14T12:29:31.194Z,28.76
2022-09-14T12:32:23.975Z,29.69
2022-09-14T12:35:33.476Z,28.88
2022-09-14T12:38:39.981Z,28.70
2022-09-14T12:41:57.680Z,29.13
2022-09-14T12:44:36.915Z,28.60
2022-09-14T12:47:57.985Z,29.00
2022-09-14T12:50:35.423Z,28.96
2022-09-14T12:53:25.226Z,28.95
2022-09-14T12:56:03.649Z,29.15
2022-09-14T12:58:55.939Z,29.71
2022-09-14T13:01:48.209Z,30.20
2022-09-14T13:06:43.684Z,30.63
2022-09-14T13:09:20.602Z,31.04
2022-09-14T13:11:55.475Z,31.16
2022-09-14T13:14:31.471Z,31.14
2022-09-14T13:17:06.143Z,32.36
2022-09-14T13:19:38.651Z,31.28
2022-09-14T13:22:19.177Z,31.76
2022-09-14T13:24:52.322Z,32.29
2022-09-14T13:27:27.363Z,32.05
2022-09-14T13:30:01.791Z,31.97
2022-09-14T13:32:35.695Z,31.72
2022-09-14T13:35:16.689Z,31.75
2022-09-14T13:37:50.012Z,31.68
2022-09-14T13:40:23.862Z,31.92
2022-09-14T13:42:57.442Z,32.16
2022-09-14T13:45:30.230Z,33.11
2022-09-14T13:48:04.626Z,32.84
2022-09-14T13:50:37.030Z,31.92
2022-09-14T13:53:38.257Z,32.57
2022-09-14T13:56:27.498Z,32.98
2022-09-14T13:59:20.979Z,33.58
2022-09-14T14:01:57.568Z,33.24
2022-09-14T14:04:34.447Z,32.81
2022-09-14T14:07:17.425Z,33.55
2022-09-14T14:09:53.101Z,34.00
2022-09-14T14:12:28.540Z,33.79
2022-09-14T14:15:03.186Z,34.64
2022-09-14T14:17:38.159Z,33.80
2022-09-14T14:20:35.312Z,34.50
2022-09-14T14:23:21.042Z,34.21
2022-09-14T14:26:07.092Z,33.87
2022-09-14T14:28:40.866Z,34.18
2022-09-14T14:31:15.206Z,34.38
2022-09-14T14:33:50.648Z,34.14
2022-09-14T14:36:22.960Z,33.71
2022-09-14T14:38:56.707Z,34.29
2022-09-14T14:41:29.772Z,33.67
2022-09-14T14:44:02.573Z,34.00
2022-09-14T14:46:35.004Z,34.64
2022-09-14T14:49:10.959Z,34.20
2022-09-14T14:51:43.520Z,34.72
2022-09-14T14:54:17.308Z,35.02
2022-09-14T14:56:51.281Z,34.50
2022-09-14T14:59:29.056Z,34.94
2022-09-14T15:02:01.626Z,35.78
2022-09-14T15:04:33.875Z,35.50
2022-09-14T15:07:06.179Z,35.35
2022-09-14T15:09:38.398Z,35.53
2022-09-14T15:12:11.582Z,35.81
2022-09-14T15:14:43.926Z,35.75
2022-09-14T15:17:16.203Z,36.45
2022-09-14T15:19:48.496Z,35.93
2022-09-14T15:22:21.092Z,36.41
2022-09-14T15:24:53.400Z,36.31
2022-09-14T15:27:26.403Z,36.31
2022-09-14T15:29:58.723Z,35.83
2022-09-14T15:32:30.992Z,36.50
2022-09-14T15:35:03.927Z,36.23
2022-09-14T15:37:36.209Z,37.06
2022-09-14T15:40:10.212Z,36.87
2022-09-14T15:42:43.319Z,37.66
2022-09-14T15:45:15.747Z,36.80
2022-09-14T15:47:48.178Z,36.78
2022-09-14T15:50:20.559Z,37.21
2022-09-14T15:52:52.866Z,37.26
2022-09-14T15:55:25.142Z,37.79
2022-09-14T15:57:58.173Z,38.22
2022-09-14T16:00:30.465Z,39.05
2022-09-14T16:03:03.439Z,39.54
2022-09-14T16:05:37.443Z,40.14
2022-09-14T16:08:09.711Z,39.99
2022-09-14T16:10:41.995Z,39.88
2022-09-14T16:13:14.929Z,39.89
2022-09-14T16:15:47.215Z,40.64
2022-09-14T16:18:19.684Z,40.68
2022-09-14T16:20:52.019Z,40.68
2022-09-14T16:23:24.451Z,40.86
2022-09-14T16:25:56.787Z,41.17
2022-09-14T16:28:29.784Z,41.26
2022-09-14T16:31:07.576Z,41.45
2022-09-14T16:33:42.329Z,41.40
2022-09-14T16:36:18.139Z,41.75
2022-09-14T16:38:50.479Z,42.44
2022-09-14T16:41:23.010Z,42.46
2022-09-14T16:43:57.086Z,42.71
2022-09-14T16:46:31.095Z,42.93
2022-09-14T16:49:05.435Z,42.92
2022-09-14T16:51:38.322Z,43.55
2022-09-14T16:54:14.954Z,43.71
2022-09-14T16:56:47.841Z,43.09
2022-09-14T16:59:20.842Z,43.45
2022-09-14T17:01:55.259Z,42.59
2022-09-14T17:04:28.134Z,42.37
2022-09-14T17:07:00.437Z,42.60
2022-09-14T17:09:33.635Z,42.22
2022-09-14T17:12:06.988Z,42.62
2022-09-14T17:14:39.927Z,43.04
2022-09-14T17:17:12.251Z,42.83
2022-09-14T17:19:44.553Z,43.51
2022-09-14T17:22:16.910Z,43.25
2022-09-14T17:24:49.158Z,43.95
2022-09-14T17:27:21.615Z,44.09
2022-09-14T17:29:54.574Z,44.16
2022-09-14T17:32:26.856Z,43.69
2022-09-14T17:34:59.196Z,43.60
2022-09-14T17:37:31.535Z,44.08
2022-09-14T17:40:05.465Z,44.13
2022-09-14T17:42:38.261Z,45.03
2022-09-14T17:45:11.552Z,44.00
2022-09-14T17:47:43.923Z,44.17
2022-09-14T17:50:18.683Z,44.10
2022-09-14T17:52:51.183Z,43.42
2022-09-14T17:55:23.664Z,43.11
2022-09-14T17:57:55.969Z,43.13
2022-09-14T18:00:29.020Z,42.86
2022-09-14T18:03:01.431Z,42.74
2022-09-14T18:05:33.720Z,42.77
2022-09-14T18:08:06.374Z,42.97
2022-09-14T18:10:38.755Z,43.14
2022-09-14T18:13:11.037Z,42.58
2022-09-14T18:15:44.056Z,42.36
2022-09-14T18:18:18.102Z,42.26
2022-09-14T18:20:50.717Z,42.40
2022-09-14T18:23:23.060Z,42.13
2022-09-14T18:25:55.870Z,42.03
2022-09-14T18:28:28.805Z,41.64
2022-09-14T18:31:04.108Z,42.18
2022-09-14T18:33:37.226Z,41.98
2022-09-14T18:36:09.828Z,42.20
2022-09-14T18:38:42.535Z,42.08
2022-09-14T18:41:16.170Z,42.64
2022-09-14T18:43:50.927Z,41.53
2022-09-14T18:46:28.152Z,41.97
2022-09-14T18:49:02.496Z,42.11
2022-09-14T18:51:34.800Z,41.76
2022-09-14T18:54:08.194Z,41.63
2022-09-14T18:56:40.969Z,41.79
2022-09-14T18:59:14.698Z,42.17
2022-09-14T19:01:47.917Z,42.71
2022-09-14T19:04:20.325Z,43.24
2022-09-14T19:06:52.931Z,43.42
2022-09-14T19:09:25.772Z,43.70
2022-09-14T19:11:58.113Z,44.37
2022-09-14T19:14:30.880Z,44.28
2022-09-14T19:17:03.911Z,44.02
2022-09-14T19:19:36.544Z,43.65
2022-09-14T19:22:09.213Z,43.35
2022-09-14T19:24:41.515Z,43.21
2022-09-14T19:27:14.283Z,44.26
2022-09-14T19:29:46.606Z,44.45
2022-09-14T19:32:20.075Z,44.06
2022-09-14T19:34:52.418Z,44.48
2022-09-14T19:37:24.927Z,44.48
2022-09-14T19:39:57.410Z,44.89
2022-09-14T19:42:29.831Z,45.61
2022-09-14T19:45:04.084Z,46.43
2022-09-14T19:47:41.110Z,45.46
2022-09-14T19:50:13.448Z,46.20
2022-09-14T19:52:45.727Z,46.61
2022-09-14T19:55:19.349Z,46.22
2022-09-14T19:57:51.729Z,46.00
2022-09-14T20:00:24.094Z,46.18
2022-09-14T20:02:57.173Z,46.29
2022-09-14T20:05:29.689Z,46.49
2022-09-14T20:08:02.300Z,46.92
2022-09-14T20:10:34.909Z,46.45
2022-09-14T20:13:07.239Z,45.59
2022-09-14T20:15:39.576Z,45.43
2022-09-14T20:18:12.594Z,45.53
2022-09-14T20:20:44.947Z,44.99
2022-09-14T20:23:17.315Z,45.86
2022-09-14T20:25:51.811Z,45.82
2022-09-14T20:28:25.207Z,46.56
2022-09-14T20:30:58.312Z,46.31
2022-09-14T20:33:32.168Z,47.13
2022-09-14T20:36:06.451Z,47.84
2022-09-14T20:38:42.384Z,47.41
2022-09-14T20:41:17.236Z,47.46
2022-09-14T20:43:49.860Z,47.14
2022-09-14T20:46:23.800Z,47.97
2022-09-14T20:48:57.757Z,46.54
2022-09-14T20:51:30.218Z,48.01
2022-09-14T20:54:03.020Z,46.95
2022-09-14T20:56:35.715Z,46.56
2022-09-14T20:59:11.303Z,47.04
2022-09-14T21:01:46.078Z,45.72
2022-09-14T21:04:20.830Z,46.47
2022-09-14T21:06:54.906Z,46.23
2022-09-14T21:09:27.187Z,46.11
2022-09-14T21:11:59.462Z,46.03
2022-09-14T21:14:31.786Z,45.22
2022-09-14T21:17:04.136Z,46.20
2022-09-14T21:19:37.677Z,45.47
2022-09-14T21:22:09.962Z,45.69
2022-09-14T21:24:42.235Z,45.81
2022-09-14T21:27:14.527Z,45.88
2022-09-14T21:29:48.751Z,45.89
2022-09-14T21:32:21.383Z,45.21
2022-09-14T21:34:54.339Z,45.38
2022-09-14T21:37:29.200Z,44.46
2022-09-14T21:40:02.057Z,45.39
2022-09-14T21:42:34.391Z,44.57
2022-09-14T21:45:07.651Z,44.28
2022-09-14T21:47:40.156Z,45.10
2022-09-14T21:50:13.158Z,44.16
2022-09-14T21:52:45.432Z,44.39
2022-09-14T21:55:18.434Z,44.51
2022-09-14T21:57:50.998Z,44.50
2022-09-14T22:00:25.513Z,43.96
2022-09-14T22:03:01.144Z,43.75
2022-09-14T22:05:34.534Z,43.64
2022-09-14T22:08:06.892Z,43.70
2022-09-14T22:10:39.791Z,43.09
2022-09-14T22:13:12.112Z,43.40
2022-09-14T22:15:44.530Z,42.93
2022-09-14T22:18:16.860Z,43.03
2022-09-14T22:20:56.474Z,42.99
2022-09-14T22:23:28.844Z,43.12
2022-09-14T22:26:05.108Z,41.70
2022-09-14T22:28:39.359Z,42.60
2022-09-14T22:31:11.653Z,42.47
2022-09-14T22:33:44.238Z,42.70
2022-09-14T22:36:17.552Z,42.47
2022-09-14T22:38:49.867Z,43.10
2022-09-14T22:41:22.375Z,42.96
2022-09-14T22:43:55.327Z,42.76
2022-09-14T22:46:27.799Z,42.90
2022-09-14T22:49:00.231Z,43.01
2022-09-14T22:51:33.183Z,42.81
2022-09-14T22:54:06.209Z,42.97
2022-09-14T22:56:39.164Z,43.19
2022-09-14T22:59:11.515Z,43.72
2022-09-14T23:01:44.220Z,44.18
2022-09-14T23:04:16.567Z,43.79
2022-09-14T23:06:49.603Z,44.02
2022-09-14T23:09:22.051Z,44.13
2022-09-14T23:11:54.346Z,45.28
2022-09-14T23:14:27.187Z,45.40
2022-09-14T23:16:59.490Z,46.00
2022-09-14T23:19:31.841Z,45.93
2022-09-14T23:22:04.931Z,45.03
2022-09-14T23:24:37.256Z,45.33
2022-09-14T23:27:09.656Z,45.96
2022-09-14T23:29:42.018Z,45.96
2022-09-14T23:32:14.350Z,47.45
2022-09-14T23:34:47.458Z,46.17
2022-09-14T23:37:20.426Z,46.92
2022-09-14T23:39:52.736Z,47.09
2022-09-14T23:42:25.126Z,47.86
2022-09-14T23:44:57.748Z,47.49
2022-09-14T23:47:30.044Z,47.35
2022-09-14T23:50:02.490Z,49.08
2022-09-14T23:52:36.216Z,50.97
2022-09-14T23:55:09.160Z,51.04
2022-09-14T23:57:41.546Z,49.71
